createdAt,value
2019-03-03T00:00:41.884Z,8.87
2019-03-03T00:03:13.467Z,8.88
2019-03-03T00:05:44.798Z,8.90
2019-03-03T00:08:16.021Z,8.91
2019-03-03T00:10:47.272Z,8.94
2019-03-03T00:13:18.499Z,8.94
2019-03-03T00:15:49.734Z,8.95
2019-03-03T00:18:20.984Z,8.97
2019-03-03T00:21:12.155Z,8.96
2019-03-03T00:23:44.593Z,8.99
2019-03-03T00:26:15.807Z,9.00
2019-03-03T00:28:47.071Z,9.02
2019-03-03T00:31:20.648Z,9.03
2019-03-03T00:33:51.834Z,9.05
2019-03-03T00:36:23.798Z,9.08
2019-03-03T00:39:08.815Z,9.10
2019-03-03T00:42:07.212Z,9.12
2019-03-03T00:45:00.651Z,9.14
2019-03-03T00:47:57.371Z,9.17
2019-03-03T00:50:47.528Z,9.18
2019-03-03T00:53:43.989Z,9.21
2019-03-03T00:56:29.571Z,9.23
2019-03-03T00:59:22.880Z,9.25
2019-03-03T01:02:11.933Z,9.26
2019-03-03T01:05:00.431Z,9.25
2019-03-03T01:07:49.725Z,9.27
2019-03-03T01:10:39.868Z,9.27
2019-03-03T01:13:30.071Z,9.28
2019-03-03T01:16:16.268Z,9.29
2019-03-03T01:19:14.942Z,9.27
2019-03-03T01:21:54.573Z,9.29
2019-03-03T01:24:40.258Z,9.29
2019-03-03T01:27:11.473Z,9.32
2019-03-03T01:29:42.657Z,9.32
2019-03-03T01:32:14.249Z,9.35
2019-03-03T01:34:45.534Z,9.38
2019-03-03T01:37:16.767Z,9.40
2019-03-03T01:39:47.962Z,9.45
2019-03-03T01:42:19.150Z,9.48
2019-03-03T01:44:50.307Z,9.51
2019-03-03T01:47:21.532Z,9.53
2019-03-03T01:49:52.819Z,9.55
2019-03-03T01:52:24.024Z,9.56
2019-03-03T01:54:55.238Z,9.57
2019-03-03T01:57:26.470Z,9.58
2019-03-03T01:59:57.810Z,9.59
2019-03-03T02:02:29.019Z,9.59
2019-03-03T02:05:00.326Z,9.58
2019-03-03T02:07:31.645Z,9.58
2019-03-03T02:10:02.844Z,9.59
2019-03-03T02:12:35.399Z,9.60
2019-03-03T02:15:07.373Z,9.62
2019-03-03T02:17:38.863Z,9.63
2019-03-03T02:20:10.153Z,9.65
2019-03-03T02:22:41.723Z,9.65
2019-03-03T02:25:12.976Z,9.68
2019-03-03T02:27:44.190Z,9.68
2019-03-03T02:30:19.447Z,9.72
2019-03-03T02:32:50.826Z,9.73
2019-03-03T02:35:22.108Z,9.76
2019-03-03T02:37:53.265Z,9.78
2019-03-03T02:40:24.429Z,9.81
2019-03-03T02:42:55.994Z,9.84
2019-03-03T02:45:27.214Z,9.87
2019-03-03T02:47:58.477Z,9.90
2019-03-03T02:50:29.694Z,9.92
2019-03-03T02:53:00.853Z,9.97
2019-03-03T02:55:32.066Z,10.03
2019-03-03T02:58:04.861Z,10.08
2019-03-03T03:00:38.219Z,10.15
2019-03-03T03:03:11.546Z,10.19
2019-03-03T03:06:10.717Z,10.26
2019-03-03T03:08:59.537Z,10.30
2019-03-03T03:11:56.150Z,10.33
2019-03-03T03:14:55.491Z,10.36
2019-03-03T03:17:38.816Z,10.39
2019-03-03T03:20:29.527Z,10.39
2019-03-03T03:23:16.002Z,10.42
2019-03-03T03:26:06.293Z,10.42
2019-03-03T03:28:59.579Z,10.44
2019-03-03T03:31:58.938Z,10.44
2019-03-03T03:34:51.853Z,10.46
2019-03-03T03:37:35.992Z,10.50
2019-03-03T03:40:26.324Z,10.52
2019-03-03T03:43:05.679Z,10.53
2019-03-03T03:45:46.391Z,10.53
2019-03-03T03:48:24.497Z,10.55
2019-03-03T03:51:14.706Z,10.56
2019-03-03T03:53:57.480Z,10.57
2019-03-03T03:56:41.022Z,10.58
2019-03-03T03:59:23.929Z,10.60
2019-03-03T04:02:10.074Z,10.60
2019-03-03T04:05:03.003Z,10.61
2019-03-03T04:07:57.577Z,10.64
2019-03-03T04:10:38.781Z,10.65
2019-03-03T04:13:23.046Z,10.67
2019-03-03T04:16:22.134Z,10.67
2019-03-03T04:19:09.123Z,10.69
2019-03-03T04:21:55.977Z,10.69
2019-03-03T04:24:38.155Z,10.68
2019-03-03T04:27:30.790Z,10.66
2019-03-03T04:30:10.146Z,10.65
2019-03-03T04:33:09.311Z,10.65
2019-03-03T04:35:58.463Z,10.65
2019-03-03T04:39:03.646Z,10.65
2019-03-03T04:41:58.455Z,10.65
2019-03-03T04:44:54.414Z,10.66
2019-03-03T04:47:47.344Z,10.68
2019-03-03T04:50:33.919Z,10.68
2019-03-03T04:53:42.598Z,10.70
2019-03-03T04:56:41.832Z,10.69
2019-03-03T04:59:43.754Z,10.70
2019-03-03T05:02:52.468Z,10.68
2019-03-03T05:05:29.839Z,10.66
2019-03-03T05:08:15.528Z,10.65
2019-03-03T05:10:54.750Z,10.62
2019-03-03T05:13:31.409Z,10.61
2019-03-03T05:16:20.132Z,10.62
2019-03-03T05:19:01.435Z,10.61
2019-03-03T05:21:32.639Z,10.63
2019-03-03T05:24:04.061Z,10.63
2019-03-03T05:26:35.336Z,10.62
2019-03-03T05:29:06.509Z,10.63
2019-03-03T05:31:37.838Z,10.66
2019-03-03T05:34:09.094Z,10.67
2019-03-03T05:36:40.233Z,10.68
2019-03-03T05:39:11.651Z,10.69
2019-03-03T05:41:42.773Z,10.70
2019-03-03T05:44:13.993Z,10.71
2019-03-03T05:46:45.428Z,10.70
2019-03-03T05:49:16.561Z,10.71
2019-03-03T05:51:47.738Z,10.72
2019-03-03T05:54:18.999Z,10.70
2019-03-03T05:56:50.152Z,10.68
2019-03-03T05:59:21.382Z,10.68
2019-03-03T06:01:52.652Z,10.66
2019-03-03T06:04:23.885Z,10.66
2019-03-03T06:06:55.168Z,10.66
2019-03-03T06:09:26.418Z,10.66
2019-03-03T06:11:57.622Z,10.68
2019-03-03T06:14:28.746Z,10.68
2019-03-03T06:16:59.946Z,10.68
2019-03-03T06:19:31.200Z,10.70
2019-03-03T06:22:02.400Z,10.70
2019-03-03T06:24:33.542Z,10.73
2019-03-03T06:27:04.775Z,10.72
2019-03-03T06:29:35.940Z,10.72
2019-03-03T06:32:07.158Z,10.73
2019-03-03T06:34:38.379Z,10.74
2019-03-03T06:37:09.512Z,10.76
2019-03-03T06:39:40.772Z,10.77
2019-03-03T06:42:12.077Z,10.80
2019-03-03T06:44:43.491Z,10.80
2019-03-03T06:47:14.792Z,10.83
2019-03-03T06:49:45.956Z,10.86
2019-03-03T06:52:17.226Z,10.87
2019-03-03T06:54:48.481Z,10.88
2019-03-03T06:57:19.743Z,10.90
2019-03-03T06:59:50.937Z,10.91
2019-03-03T07:02:22.152Z,10.91
2019-03-03T07:04:53.437Z,10.93
2019-03-03T07:07:24.755Z,10.95
2019-03-03T07:09:55.943Z,10.96
2019-03-03T07:12:27.459Z,10.99
2019-03-03T07:14:58.876Z,11.00
2019-03-03T07:17:30.206Z,11.03
2019-03-03T07:20:01.418Z,11.05
2019-03-03T07:22:33.524Z,11.07
2019-03-03T07:25:05.564Z,11.12
2019-03-03T07:27:36.792Z,11.14
2019-03-03T07:30:10.831Z,11.18
2019-03-03T07:32:49.454Z,11.21
2019-03-03T07:35:20.759Z,11.24
2019-03-03T07:37:51.967Z,11.27
2019-03-03T07:40:23.312Z,11.28
2019-03-03T07:42:54.547Z,11.30
2019-03-03T07:45:25.987Z,11.34
2019-03-03T07:47:57.250Z,11.37
2019-03-03T07:50:28.622Z,11.41
2019-03-03T07:52:59.780Z,11.44
2019-03-03T07:55:30.991Z,11.46
2019-03-03T07:58:02.205Z,11.50
2019-03-03T08:00:33.475Z,11.50
2019-03-03T08:03:04.736Z,11.52
2019-03-03T08:05:36.092Z,11.54
2019-03-03T08:08:07.270Z,11.55
2019-03-03T08:10:38.455Z,11.58
2019-03-03T08:13:09.820Z,11.63
2019-03-03T08:15:41.062Z,11.64
2019-03-03T08:18:12.205Z,11.68
2019-03-03T08:20:43.532Z,11.70
2019-03-03T08:23:15.214Z,11.74
2019-03-03T08:25:46.515Z,11.76
2019-03-03T08:28:18.202Z,11.78
2019-03-03T08:30:49.436Z,11.81
2019-03-03T08:33:20.705Z,11.83
2019-03-03T08:35:51.975Z,11.85
2019-03-03T08:38:23.339Z,11.89
2019-03-03T08:40:54.608Z,11.94
2019-03-03T08:43:44.727Z,12.01
2019-03-03T08:46:44.966Z,12.03
2019-03-03T08:49:30.368Z,12.04
2019-03-03T08:52:23.290Z,12.07
2019-03-03T08:55:13.479Z,12.09
2019-03-03T08:58:06.397Z,12.09
2019-03-03T09:00:45.083Z,12.09
2019-03-03T09:03:50.588Z,12.10
2019-03-03T09:06:43.555Z,12.10
2019-03-03T09:09:43.400Z,12.08
2019-03-03T09:12:36.510Z,12.05
2019-03-03T09:15:25.346Z,12.04
2019-03-03T09:18:10.486Z,12.03
2019-03-03T09:21:09.582Z,12.03
2019-03-03T09:23:59.729Z,12.02
2019-03-03T09:26:51.796Z,12.03
2019-03-03T09:29:48.203Z,12.04
2019-03-03T09:32:44.146Z,12.05
2019-03-03T09:35:34.291Z,12.08
2019-03-03T09:38:33.765Z,12.08
2019-03-03T09:41:14.810Z,12.12
2019-03-03T09:43:57.819Z,12.16
2019-03-03T09:46:48.006Z,12.20
2019-03-03T09:49:35.115Z,12.24
2019-03-03T09:52:43.434Z,12.28
2019-03-03T09:55:41.589Z,12.30
2019-03-03T09:58:34.500Z,12.31
2019-03-03T10:01:15.125Z,12.32
2019-03-03T10:04:05.137Z,12.36
2019-03-03T10:06:51.904Z,12.38
2019-03-03T10:09:32.988Z,12.40
2019-03-03T10:12:23.146Z,12.43
2019-03-03T10:15:31.940Z,12.45
2019-03-03T10:18:25.022Z,12.49
2019-03-03T10:21:03.330Z,12.49
2019-03-03T10:23:50.437Z,12.50
2019-03-03T10:26:52.996Z,12.53
2019-03-03T10:29:34.551Z,12.53
2019-03-03T10:32:28.722Z,12.57
2019-03-03T10:35:17.576Z,12.56
2019-03-03T10:38:06.989Z,12.56
2019-03-03T10:40:56.063Z,12.52
2019-03-03T10:43:55.162Z,12.50
2019-03-03T10:46:48.193Z,12.49
2019-03-03T10:49:25.862Z,12.51
2019-03-03T10:52:06.409Z,12.51
2019-03-03T10:54:43.207Z,12.51
2019-03-03T10:57:36.122Z,12.51
2019-03-03T11:00:25.121Z,12.54
2019-03-03T11:03:15.258Z,12.59
2019-03-03T11:05:54.639Z,12.63
2019-03-03T11:08:50.640Z,12.69
2019-03-03T11:11:39.451Z,12.75
2019-03-03T11:14:32.752Z,12.80
2019-03-03T11:17:28.633Z,12.86
2019-03-03T11:20:17.903Z,12.90
2019-03-03T11:23:08.000Z,12.94
2019-03-03T11:26:00.996Z,12.97
2019-03-03T11:28:57.313Z,13.00
2019-03-03T11:31:46.787Z,13.03
2019-03-03T11:34:30.684Z,13.04
2019-03-03T11:37:23.904Z,13.05
2019-03-03T11:40:33.490Z,13.05
2019-03-03T11:43:21.598Z,13.04
2019-03-03T11:46:23.904Z,13.04
2019-03-03T11:49:14.118Z,13.02
2019-03-03T11:52:07.083Z,13.01
2019-03-03T11:54:57.466Z,13.04
2019-03-03T11:57:40.791Z,13.05
2019-03-03T12:00:37.624Z,13.04
2019-03-03T12:03:30.218Z,13.01
2019-03-03T12:06:19.207Z,13.00
2019-03-03T12:09:09.467Z,12.99
2019-03-03T12:12:06.517Z,12.95
2019-03-03T12:14:59.435Z,12.87
2019-03-03T12:17:55.772Z,12.79
2019-03-03T12:20:49.036Z,12.71
2019-03-03T12:23:28.731Z,12.68
2019-03-03T12:26:27.998Z,12.65
2019-03-03T12:29:24.081Z,12.65
2019-03-03T12:32:14.306Z,12.60
2019-03-03T12:35:19.586Z,12.57
2019-03-03T12:38:22.161Z,12.54
2019-03-03T12:41:21.244Z,12.53
2019-03-03T12:44:10.527Z,12.52
2019-03-03T12:46:52.208Z,12.54
2019-03-03T12:49:42.460Z,12.57
2019-03-03T12:52:33.036Z,12.57
2019-03-03T12:55:15.463Z,12.58
2019-03-03T12:58:20.743Z,12.58
2019-03-03T13:01:10.826Z,12.58
2019-03-03T13:03:58.371Z,12.60
2019-03-03T13:06:48.623Z,12.59
2019-03-03T13:09:31.453Z,12.60
2019-03-03T13:12:27.978Z,12.61
2019-03-03T13:15:07.807Z,12.59
2019-03-03T13:17:48.273Z,12.58
2019-03-03T13:20:22.617Z,12.57
2019-03-03T13:23:18.307Z,12.56
2019-03-03T13:26:02.027Z,12.57
2019-03-03T13:28:43.029Z,12.57
2019-03-03T13:31:39.521Z,12.58
2019-03-03T13:34:29.667Z,12.58
2019-03-03T13:37:19.837Z,12.56
2019-03-03T13:39:57.247Z,12.54
2019-03-03T13:42:44.086Z,12.52
2019-03-03T13:45:15.883Z,12.54
2019-03-03T13:47:47.072Z,12.57
2019-03-03T13:50:18.261Z,12.59
2019-03-03T13:52:49.433Z,12.63
2019-03-03T13:55:20.824Z,12.63
2019-03-03T13:57:51.961Z,12.60
2019-03-03T14:00:23.483Z,12.57
2019-03-03T14:02:54.753Z,12.56
2019-03-03T14:05:26.161Z,12.54
2019-03-03T14:07:57.346Z,12.49
2019-03-03T14:10:28.629Z,12.43
2019-03-03T14:12:59.837Z,12.40
2019-03-03T14:15:31.033Z,12.36
2019-03-03T14:18:02.207Z,12.33
2019-03-03T14:20:33.487Z,12.30
2019-03-03T14:23:04.734Z,12.28
2019-03-03T14:25:35.950Z,12.26
2019-03-03T14:28:07.101Z,12.24
2019-03-03T14:30:38.331Z,12.22
2019-03-03T14:33:10.602Z,12.19
2019-03-03T14:35:42.012Z,12.18
2019-03-03T14:38:13.153Z,12.16
2019-03-03T14:40:44.334Z,12.12
2019-03-03T14:43:15.536Z,12.09
2019-03-03T14:45:46.678Z,12.05
2019-03-03T14:48:17.941Z,12.01
2019-03-03T14:50:49.158Z,11.99
2019-03-03T14:53:21.384Z,11.95
2019-03-03T14:55:52.711Z,11.94
2019-03-03T14:58:23.995Z,11.93
2019-03-03T15:00:55.183Z,11.89
2019-03-03T15:03:27.502Z,11.86
2019-03-03T15:05:58.670Z,11.83
2019-03-03T15:08:31.128Z,11.82
2019-03-03T15:11:02.383Z,11.80
2019-03-03T15:13:33.709Z,11.81
2019-03-03T15:16:05.127Z,11.83
2019-03-03T15:18:36.451Z,11.84
2019-03-03T15:21:08.689Z,11.83
2019-03-03T15:23:40.069Z,11.85
2019-03-03T15:26:12.399Z,11.86
2019-03-03T15:28:43.578Z,11.89
2019-03-03T15:31:14.784Z,11.87
2019-03-03T15:33:46.078Z,11.89
2019-03-03T15:36:17.328Z,11.89
2019-03-03T15:38:48.528Z,11.90
2019-03-03T15:41:19.850Z,11.93
2019-03-03T15:43:50.996Z,11.93
2019-03-03T15:46:22.219Z,11.95
2019-03-03T15:48:53.401Z,11.95
2019-03-03T15:51:24.722Z,11.95
2019-03-03T15:53:55.900Z,11.94
2019-03-03T15:56:27.174Z,11.94
2019-03-03T15:58:58.359Z,11.94
2019-03-03T16:01:29.699Z,11.94
2019-03-03T16:04:00.856Z,11.93
2019-03-03T16:06:32.079Z,11.94
2019-03-03T16:09:04.450Z,11.96
2019-03-03T16:11:37.719Z,11.96
2019-03-03T16:14:09.195Z,11.95
2019-03-03T16:16:40.399Z,11.97
2019-03-03T16:19:11.887Z,11.96
2019-03-03T16:21:43.244Z,11.96
2019-03-03T16:24:15.219Z,11.96
2019-03-03T16:26:48.351Z,11.97
2019-03-03T16:29:20.053Z,11.96
2019-03-03T16:31:51.405Z,11.96
2019-03-03T16:34:22.577Z,11.96
2019-03-03T16:36:53.859Z,11.94
2019-03-03T16:39:25.119Z,11.93
2019-03-03T16:41:56.280Z,11.94
2019-03-03T16:44:27.638Z,11.94
2019-03-03T16:47:01.666Z,11.94
2019-03-03T16:49:33.980Z,11.92
2019-03-03T16:52:05.524Z,11.92
2019-03-03T16:54:38.062Z,11.94
2019-03-03T16:57:09.917Z,11.95
2019-03-03T16:59:42.579Z,11.97
2019-03-03T17:02:14.167Z,11.98
2019-03-03T17:04:46.216Z,11.98
2019-03-03T17:07:17.907Z,11.98
2019-03-03T17:09:49.403Z,11.97
2019-03-03T17:12:20.766Z,11.99
2019-03-03T17:14:53.161Z,11.99
2019-03-03T17:17:24.376Z,11.98
2019-03-03T17:19:55.553Z,12.00
2019-03-03T17:22:26.727Z,12.01
2019-03-03T17:24:57.957Z,12.01
2019-03-03T17:27:29.255Z,11.99
2019-03-03T17:30:00.418Z,11.97
2019-03-03T17:32:31.786Z,11.99
2019-03-03T17:35:03.035Z,11.97
2019-03-03T17:37:34.218Z,11.99
2019-03-03T17:40:06.413Z,11.99
2019-03-03T17:42:37.571Z,11.99
2019-03-03T17:45:11.228Z,12.00
2019-03-03T17:47:42.403Z,12.01
2019-03-03T17:50:14.424Z,12.01
2019-03-03T17:52:46.404Z,12.03
2019-03-03T17:55:17.821Z,12.04
2019-03-03T17:57:50.413Z,12.06
2019-03-03T18:00:23.780Z,12.07
2019-03-03T18:02:55.275Z,12.07
2019-03-03T18:05:26.514Z,12.07
2019-03-03T18:07:57.789Z,12.08
2019-03-03T18:10:28.993Z,12.08
2019-03-03T18:13:00.370Z,12.09
2019-03-03T18:15:32.146Z,12.09
2019-03-03T18:18:04.603Z,12.08
2019-03-03T18:20:35.835Z,12.09
2019-03-03T18:23:07.077Z,12.08
2019-03-03T18:25:38.596Z,12.09
2019-03-03T18:28:09.844Z,12.10
2019-03-03T18:30:41.138Z,12.08
2019-03-03T18:33:12.301Z,12.10
2019-03-03T18:35:43.726Z,12.09
2019-03-03T18:38:14.970Z,12.08
2019-03-03T18:40:46.263Z,12.08
2019-03-03T18:43:17.716Z,12.09
2019-03-03T18:45:48.961Z,12.08
2019-03-03T18:48:20.260Z,12.08
2019-03-03T18:50:51.717Z,12.08
2019-03-03T18:53:23.121Z,12.09
2019-03-03T18:55:55.081Z,12.09
2019-03-03T18:58:26.405Z,12.10
2019-03-03T19:00:57.575Z,12.09
2019-03-03T19:03:29.951Z,12.11
2019-03-03T19:06:01.282Z,12.11
2019-03-03T19:08:32.654Z,12.10
2019-03-03T19:11:03.972Z,12.11
2019-03-03T19:13:35.676Z,12.09
2019-03-03T19:16:07.442Z,12.11
2019-03-03T19:18:38.859Z,12.10
2019-03-03T19:21:10.171Z,12.11
2019-03-03T19:23:41.632Z,12.11
2019-03-03T19:26:13.071Z,12.13
2019-03-03T19:28:48.210Z,12.14
2019-03-03T19:31:21.027Z,12.13
2019-03-03T19:33:54.707Z,12.14
2019-03-03T19:36:25.942Z,12.14
2019-03-03T19:38:57.198Z,12.16
2019-03-03T19:41:28.346Z,12.17
2019-03-03T19:43:59.717Z,12.18
2019-03-03T19:46:30.987Z,12.19
2019-03-03T19:49:02.746Z,12.19
2019-03-03T19:51:34.094Z,12.19
2019-03-03T19:54:05.527Z,12.17
2019-03-03T19:56:36.933Z,12.18
2019-03-03T19:59:08.178Z,12.17
2019-03-03T20:01:40.406Z,12.18
2019-03-03T20:04:11.671Z,12.19
2019-03-03T20:06:42.888Z,12.18
2019-03-03T20:09:15.652Z,12.20
2019-03-03T20:11:47.966Z,12.21
2019-03-03T20:14:22.188Z,12.21
2019-03-03T20:16:55.975Z,12.20
2019-03-03T20:19:26.904Z,12.20
2019-03-03T20:21:58.075Z,12.21
2019-03-03T20:24:29.214Z,12.20
2019-03-03T20:27:00.354Z,12.20
2019-03-03T20:29:31.543Z,12.21
2019-03-03T20:32:02.876Z,12.21
2019-03-03T20:34:34.178Z,12.21
2019-03-03T20:37:05.402Z,12.20
2019-03-03T20:39:37.630Z,12.20
2019-03-03T20:42:10.439Z,12.22
2019-03-03T20:44:41.666Z,12.22
2019-03-03T20:47:13.071Z,12.19
2019-03-03T20:49:45.461Z,12.18
2019-03-03T20:52:16.661Z,12.17
2019-03-03T20:54:47.834Z,12.16
2019-03-03T20:57:19.000Z,12.15
2019-03-03T20:59:51.254Z,12.14
2019-03-03T21:02:22.884Z,12.15
2019-03-03T21:04:54.265Z,12.18
2019-03-03T21:07:25.487Z,12.17
2019-03-03T21:09:56.646Z,12.16
2019-03-03T21:12:27.908Z,12.14
2019-03-03T21:14:59.092Z,12.13
2019-03-03T21:17:30.520Z,12.13
2019-03-03T21:20:01.805Z,12.10
2019-03-03T21:22:33.068Z,12.09
2019-03-03T21:25:04.579Z,12.10
2019-03-03T21:27:55.603Z,12.09
2019-03-03T21:30:27.172Z,12.09
2019-03-03T21:32:58.553Z,12.10
2019-03-03T21:35:29.887Z,12.11
2019-03-03T21:38:01.339Z,12.12
2019-03-03T21:40:32.766Z,12.12
2019-03-03T21:43:04.201Z,12.13
2019-03-03T21:45:35.662Z,12.13
2019-03-03T21:48:07.080Z,12.13
2019-03-03T21:50:38.551Z,12.15
2019-03-03T21:53:09.799Z,12.14
2019-03-03T21:55:41.130Z,12.15
2019-03-03T21:58:12.629Z,12.16
2019-03-03T22:00:43.920Z,12.16
2019-03-03T22:03:16.161Z,12.18
2019-03-03T22:05:47.598Z,12.17
2019-03-03T22:08:18.910Z,12.18
2019-03-03T22:10:50.568Z,12.19
2019-03-03T22:13:22.019Z,12.18
2019-03-03T22:15:56.293Z,12.17
2019-03-03T22:18:27.505Z,12.16
2019-03-03T22:20:58.751Z,12.17
2019-03-03T22:23:29.937Z,12.16
2019-03-03T22:26:01.368Z,12.16
2019-03-03T22:28:32.660Z,12.17
2019-03-03T22:31:03.909Z,12.16
2019-03-03T22:33:35.261Z,12.17
2019-03-03T22:36:06.538Z,12.17
2019-03-03T22:38:37.783Z,12.16
2019-03-03T22:41:09.073Z,12.15
2019-03-03T22:43:40.453Z,12.14
2019-03-03T22:46:12.139Z,12.16
2019-03-03T22:48:43.598Z,12.16
2019-03-03T22:51:14.901Z,12.18
2019-03-03T22:53:46.102Z,12.18
2019-03-03T22:56:18.675Z,12.19
2019-03-03T22:58:50.077Z,12.18
2019-03-03T23:01:25.906Z,12.17
2019-03-03T23:04:29.479Z,12.16
2019-03-03T23:07:14.976Z,12.15
2019-03-03T23:10:29.876Z,12.15
2019-03-03T23:13:10.031Z,12.15
2019-03-03T23:16:31.133Z,12.15
2019-03-03T23:19:51.862Z,12.14
2019-03-03T23:23:03.255Z,12.10
2019-03-03T23:25:53.629Z,12.08
2019-03-03T23:28:26.175Z,12.08
2019-03-03T23:30:58.180Z,12.07
2019-03-03T23:33:29.490Z,12.06
2019-03-03T23:36:00.821Z,12.04
2019-03-03T23:38:33.245Z,12.03
2019-03-03T23:41:04.602Z,12.03
2019-03-03T23:43:35.902Z,12.05
2019-03-03T23:46:07.232Z,12.07
2019-03-03T23:48:38.526Z,12.08
2019-03-03T23:51:09.881Z,12.10
2019-03-03T23:53:41.227Z,12.12
2019-03-03T23:56:12.980Z,12.13
2019-03-03T23:58:44.262Z,12.16
